sensor_id;sensor_type;location;lat;lon;timestamp;pressure;altitude;pressure_sealevel;temperature;humidity
62976;BME280;49071;0.000;0.000;2023-05-19T08:52:02;102036.25;;;21.62;39.68
62976;BME280;49071;0.000;0.000;2023-05-19T08:55:08;102032.72;;;20.30;42.73
62976;BME280;49071;0.000;0.000;2023-05-19T08:58:12;102032.00;;;20.02;43.62
62976;BME280;49071;0.000;0.000;2023-05-19T09:01:14;102036.56;;;19.98;43.76
62976;BME280;49071;0.000;0.000;2023-05-19T09:04:17;102030.31;;;19.99;44.03
62976;BME280;49071;0.000;0.000;2023-05-19T13:22:40;101921.88;;;20.76;41.32
62976;BME280;49071;0.000;0.000;2023-05-19T13:31:41;101927.53;;;21.11;nan
62976;BME280;49071;0.000;0.000;2023-05-19T13:34:41;101920.09;;;20.77;nan
62976;BME280;49071;0.000;0.000;2023-05-19T13:39:06;101922.88;;;21.57;39.30
62976;BME280;49071;0.000;0.000;2023-05-19T13:42:07;101921.59;;;21.25;40.53
62976;BME280;49071;0.000;0.000;2023-05-19T13:47:44;101917.06;;;19.73;44.69
62976;BME280;49071;0.000;0.000;2023-05-19T13:50:44;101918.63;;;19.54;45.47
62976;BME280;49071;0.000;0.000;2023-05-19T13:53:45;101913.41;;;19.51;45.30
62976;BME280;49071;0.000;0.000;2023-05-19T13:56:45;101908.97;;;19.52;45.17
62976;BME280;49071;0.000;0.000;2023-05-19T13:59:47;101908.09;;;19.51;45.61
62976;BME280;49071;0.000;0.000;2023-05-19T14:02:47;101911.69;;;19.50;45.97
62976;BME280;49071;0.000;0.000;2023-05-19T14:05:47;101902.78;;;19.51;45.61
62976;BME280;49071;0.000;0.000;2023-05-19T14:08:48;101904.50;;;19.54;45.47
62976;BME280;49071;0.000;0.000;2023-05-19T14:11:48;101903.56;;;19.55;45.23
62976;BME280;49071;0.000;0.000;2023-05-19T14:14:48;101910.56;;;19.57;45.50
62976;BME280;49071;0.000;0.000;2023-05-19T14:17:49;101917.59;;;19.60;44.81
62976;BME280;49071;0.000;0.000;2023-05-19T14:20:49;101913.00;;;19.63;44.96
62976;BME280;49071;0.000;0.000;2023-05-19T14:23:49;101919.03;;;19.68;44.96
62976;BME280;49071;0.000;0.000;2023-05-19T14:26:49;101919.09;;;19.67;44.72
62976;BME280;49071;0.000;0.000;2023-05-19T14:29:50;101923.47;;;19.68;44.62
62976;BME280;49071;0.000;0.000;2023-05-19T14:32:50;101919.88;;;19.69;44.82
62976;BME280;49071;0.000;0.000;2023-05-19T14:35:50;101922.69;;;19.64;44.88
62976;BME280;49071;0.000;0.000;2023-05-19T14:38:51;101926.34;;;19.62;44.90
62976;BME280;49071;0.000;0.000;2023-05-19T14:41:51;101924.72;;;19.58;44.93
62976;BME280;49071;0.000;0.000;2023-05-19T14:44:51;101919.25;;;19.62;44.91
62976;BME280;49071;0.000;0.000;2023-05-19T14:47:52;101925.13;;;19.70;45.10
62976;BME280;49071;0.000;0.000;2023-05-19T14:50:52;101911.78;;;19.72;44.99
62976;BME280;49071;0.000;0.000;2023-05-19T14:53:52;101914.50;;;19.70;45.08
62976;BME280;49071;0.000;0.000;2023-05-19T14:56:52;101916.19;;;19.73;45.28
62976;BME280;49071;0.000;0.000;2023-05-19T14:59:52;101923.19;;;19.75;45.69
62976;BME280;49071;0.000;0.000;2023-05-19T15:02:53;101916.25;;;19.71;45.37
62976;BME280;49071;0.000;0.000;2023-05-19T15:05:53;101932.19;;;19.71;45.80
62976;BME280;49071;0.000;0.000;2023-05-19T15:08:53;101934.03;;;19.69;46.00
62976;BME280;49071;0.000;0.000;2023-05-19T15:11:54;101932.31;;;19.68;46.00
62976;BME280;49071;0.000;0.000;2023-05-19T15:14:54;101930.44;;;19.70;46.26
62976;BME280;49071;0.000;0.000;2023-05-19T15:17:55;101932.09;;;19.74;45.69
62976;BME280;49071;0.000;0.000;2023-05-19T15:20:55;101917.75;;;19.79;45.80
62976;BME280;49071;0.000;0.000;2023-05-19T15:23:55;101915.09;;;19.79;45.64
62976;BME280;49071;0.000;0.000;2023-05-19T15:26:55;101912.44;;;19.79;45.89
62976;BME280;49071;0.000;0.000;2023-05-19T15:29:55;101912.63;;;19.74;45.84
62976;BME280;49071;0.000;0.000;2023-05-19T15:32:57;101907.31;;;19.74;45.83
62976;BME280;49071;0.000;0.000;2023-05-19T15:35:57;101907.31;;;19.74;45.78
62976;BME280;49071;0.000;0.000;2023-05-19T15:38:57;101900.22;;;19.74;45.76
62976;BME280;49071;0.000;0.000;2023-05-19T15:41:58;101906.31;;;19.77;45.68
62976;BME280;49071;0.000;0.000;2023-05-19T15:44:58;101902.03;;;19.72;45.75
62976;BME280;49071;0.000;0.000;2023-05-19T15:47:58;101907.47;;;19.69;46.07
62976;BME280;49071;0.000;0.000;2023-05-19T15:50:58;101911.75;;;19.73;45.66
62976;BME280;49071;0.000;0.000;2023-05-19T15:53:58;101914.50;;;19.70;45.66
62976;BME280;49071;0.000;0.000;2023-05-19T15:56:59;101917.97;;;19.72;45.99
62976;BME280;49071;0.000;0.000;2023-05-19T15:59:59;101910.06;;;19.71;45.96
62976;BME280;49071;0.000;0.000;2023-05-19T16:02:59;101915.38;;;19.71;46.23
62976;BME280;49071;0.000;0.000;2023-05-19T16:06:00;101919.81;;;19.70;45.91
62976;BME280;49071;0.000;0.000;2023-05-19T16:09:00;101915.44;;;19.69;46.10
62976;BME280;49071;0.000;0.000;2023-05-19T16:12:00;101912.78;;;19.69;46.20
62976;BME280;49071;0.000;0.000;2023-05-19T16:15:00;101911.06;;;19.68;46.54
62976;BME280;49071;0.000;0.000;2023-05-19T16:18:00;101911.97;;;19.67;46.22
62976;BME280;49071;0.000;0.000;2023-05-19T16:21:01;101918.09;;;19.69;46.19
62976;BME280;49071;0.000;0.000;2023-05-19T16:24:01;101918.91;;;19.71;45.99
62976;BME280;49071;0.000;0.000;2023-05-19T16:27:01;101912.66;;;19.72;46.05
62976;BME280;49071;0.000;0.000;2023-05-19T16:30:01;101908.13;;;19.76;45.96
62976;BME280;49071;0.000;0.000;2023-05-19T16:33:02;101914.41;;;19.73;45.71
62976;BME280;49071;0.000;0.000;2023-05-19T16:36:02;101914.50;;;19.70;46.38
62976;BME280;49071;0.000;0.000;2023-05-19T16:39:02;101907.34;;;19.72;46.28
62976;BME280;49071;0.000;0.000;2023-05-19T16:42:03;101911.69;;;19.75;45.82
62976;BME280;49071;0.000;0.000;2023-05-19T16:45:03;101916.09;;;19.76;45.93
62976;BME280;49071;0.000;0.000;2023-05-19T16:48:03;101912.56;;;19.75;46.27
62976;BME280;49071;0.000;0.000;2023-05-19T16:51:04;101910.78;;;19.76;45.99
62976;BME280;49071;0.000;0.000;2023-05-19T16:54:04;101919.59;;;19.77;46.05
62976;BME280;49071;0.000;0.000;2023-05-19T16:57:04;101917.06;;;19.73;46.28
62976;BME280;49071;0.000;0.000;2023-05-19T17:00:05;101921.16;;;19.82;45.97
62976;BME280;49071;0.000;0.000;2023-05-19T17:03:05;101915.94;;;19.81;45.80
62976;BME280;49071;0.000;0.000;2023-05-19T17:06:05;101909.72;;;19.80;45.58
62976;BME280;49071;0.000;0.000;2023-05-19T17:09:05;101911.50;;;19.80;45.67
62976;BME280;49071;0.000;0.000;2023-05-19T17:12:06;101908.84;;;19.80;45.95
62976;BME280;49071;0.000;0.000;2023-05-19T17:15:06;101917.00;;;19.75;45.84
62976;BME280;49071;0.000;0.000;2023-05-19T17:18:06;101916.31;;;19.70;46.21
62976;BME280;49071;0.000;0.000;2023-05-19T17:21:07;101916.38;;;19.68;45.99
62976;BME280;49071;0.000;0.000;2023-05-19T17:24:07;101918.22;;;19.66;46.08
62976;BME280;49071;0.000;0.000;2023-05-19T17:27:07;101918.22;;;19.66;46.02
62976;BME280;49071;0.000;0.000;2023-05-19T17:30:07;101913.66;;;19.70;46.01
62976;BME280;49071;0.000;0.000;2023-05-19T17:33:08;101918.16;;;19.68;45.93
62976;BME280;49071;0.000;0.000;2023-05-19T17:36:08;101928.88;;;19.65;46.03
62976;BME280;49071;0.000;0.000;2023-05-19T17:39:08;101931.66;;;19.62;45.95
62976;BME280;49071;0.000;0.000;2023-05-19T17:42:08;101928.94;;;19.63;45.98
62976;BME280;49071;0.000;0.000;2023-05-19T17:45:09;101929.19;;;19.56;45.40
62976;BME280;49071;0.000;0.000;2023-05-19T17:48:11;101935.44;;;19.55;45.75
62976;BME280;49071;0.000;0.000;2023-05-19T17:51:11;101937.31;;;19.51;45.76
62976;BME280;49071;0.000;0.000;2023-05-19T17:54:11;101938.19;;;19.52;45.89
62976;BME280;49071;0.000;0.000;2023-05-19T17:57:11;101930.22;;;19.52;45.91
62976;BME280;49071;0.000;0.000;2023-05-19T18:00:14;101947.91;;;19.53;45.89
62976;BME280;49071;0.000;0.000;2023-05-19T18:03:15;101953.16;;;19.54;46.00
62976;BME280;49071;0.000;0.000;2023-05-19T18:06:15;101946.91;;;19.55;45.54
62976;BME280;49071;0.000;0.000;2023-05-19T18:09:17;101950.41;;;19.57;45.70
62976;BME280;49071;0.000;0.000;2023-05-19T18:12:17;101948.56;;;19.59;45.71
62976;BME280;49071;0.000;0.000;2023-05-19T18:15:17;101944.16;;;19.58;45.82
62976;BME280;49071;0.000;0.000;2023-05-19T18:18:18;101946.78;;;19.60;45.82
62976;BME280;49071;0.000;0.000;2023-05-19T18:21:18;101956.53;;;19.59;45.89
62976;BME280;49071;0.000;0.000;2023-05-19T18:24:18;101951.25;;;19.58;45.86
62976;BME280;49071;0.000;0.000;2023-05-19T18:27:18;101953.94;;;19.56;46.49
62976;BME280;49071;0.000;0.000;2023-05-19T18:30:18;101959.25;;;19.56;46.42
62976;BME280;49071;0.000;0.000;2023-05-19T18:33:19;101959.25;;;19.56;46.31
62976;BME280;49071;0.000;0.000;2023-05-19T18:36:19;101963.69;;;19.57;46.17
62976;BME280;49071;0.000;0.000;2023-05-19T18:39:19;101958.41;;;19.56;46.26
62976;BME280;49071;0.000;0.000;2023-05-19T18:42:20;101960.19;;;19.55;45.92
62976;BME280;49071;0.000;0.000;2023-05-19T18:45:20;101957.53;;;19.55;46.61
62976;BME280;49071;0.000;0.000;2023-05-19T18:48:20;101961.09;;;19.54;46.73
62976;BME280;49071;0.000;0.000;2023-05-19T18:51:21;101953.94;;;19.56;45.73
62976;BME280;49071;0.000;0.000;2023-05-19T18:54:21;101954.81;;;19.57;46.04
62976;BME280;49071;0.000;0.000;2023-05-19T18:57:21;101964.56;;;19.56;46.22
62976;BME280;49071;0.000;0.000;2023-05-19T19:00:21;101968.16;;;19.55;47.12
62976;BME280;49071;0.000;0.000;2023-05-19T19:03:22;101954.00;;;19.55;46.39
62976;BME280;49071;0.000;0.000;2023-05-19T19:06:22;101957.47;;;19.57;46.29
62976;BME280;49071;0.000;0.000;2023-05-19T19:09:22;101958.41;;;19.56;45.94
62976;BME280;49071;0.000;0.000;2023-05-19T19:12:23;101956.53;;;19.59;46.34
62976;BME280;49071;0.000;0.000;2023-05-19T19:15:23;101968.91;;;19.60;45.97
62976;BME280;49071;0.000;0.000;2023-05-19T19:18:24;101963.47;;;19.63;46.57
62976;BME280;49071;0.000;0.000;2023-05-19T19:21:25;101963.53;;;19.62;46.31
62976;BME280;49071;0.000;0.000;2023-05-19T19:24:25;101970.63;;;19.61;46.39
62976;BME280;49071;0.000;0.000;2023-05-19T19:27:27;101972.28;;;19.64;46.42
62976;BME280;49071;0.000;0.000;2023-05-19T19:30:29;101971.44;;;19.63;45.73
62976;BME280;49071;0.000;0.000;2023-05-19T19:33:30;101961.66;;;19.64;46.39
62976;BME280;49071;0.000;0.000;2023-05-19T19:36:30;101965.03;;;19.69;46.43
62976;BME280;49071;0.000;0.000;2023-05-19T19:39:30;101969.56;;;19.65;46.29
62976;BME280;49071;0.000;0.000;2023-05-19T19:42:31;101970.44;;;19.66;46.24
62976;BME280;49071;0.000;0.000;2023-05-19T19:45:31;101964.25;;;19.65;45.91
62976;BME280;49071;0.000;0.000;2023-05-19T19:48:33;101962.53;;;19.64;46.43
62976;BME280;49071;0.000;0.000;2023-05-19T19:51:33;101962.53;;;19.64;46.30
62976;BME280;49071;0.000;0.000;2023-05-19T19:54:33;101968.72;;;19.65;46.47
62976;BME280;49071;0.000;0.000;2023-05-19T19:57:34;101963.38;;;19.66;46.42
62976;BME280;49071;0.000;0.000;2023-05-19T20:00:34;101962.53;;;19.64;46.28
62976;BME280;49071;0.000;0.000;2023-05-19T20:03:34;101966.13;;;19.63;46.40
62976;BME280;49071;0.000;0.000;2023-05-19T20:06:34;101963.47;;;19.63;46.36
62976;BME280;49071;0.000;0.000;2023-05-19T20:09:36;101960.88;;;19.62;46.59
62976;BME280;49071;0.000;0.000;2023-05-19T20:12:36;101966.13;;;19.63;46.33
62976;BME280;49071;0.000;0.000;2023-05-19T20:15:36;101969.56;;;19.65;45.87
62976;BME280;49071;0.000;0.000;2023-05-19T20:18:36;101970.56;;;19.63;46.16
62976;BME280;49071;0.000;0.000;2023-05-19T20:21:37;101970.56;;;19.63;46.00
62976;BME280;49071;0.000;0.000;2023-05-19T20:24:37;101967.91;;;19.63;46.60
62976;BME280;49071;0.000;0.000;2023-05-19T20:27:38;101962.75;;;19.58;46.49
62976;BME280;49071;0.000;0.000;2023-05-19T20:30:38;101968.91;;;19.59;46.61
62976;BME280;49071;0.000;0.000;2023-05-19T20:33:38;101961.03;;;19.57;45.95
62976;BME280;49071;0.000;0.000;2023-05-19T20:36:38;101965.41;;;19.58;46.47
62976;BME280;49071;0.000;0.000;2023-05-19T20:39:38;101961.03;;;19.57;46.79
62976;BME280;49071;0.000;0.000;2023-05-19T20:42:39;101961.03;;;19.57;46.82
62976;BME280;49071;0.000;0.000;2023-05-19T20:45:43;101969.00;;;19.57;46.50
62976;BME280;49071;0.000;0.000;2023-05-19T20:48:43;101968.91;;;19.59;46.48
62976;BME280;49071;0.000;0.000;2023-05-19T20:51:43;101965.41;;;19.58;46.27
62976;BME280;49071;0.000;0.000;2023-05-19T20:54:43;101971.63;;;19.57;46.40
62976;BME280;49071;0.000;0.000;2023-05-19T20:57:45;101970.75;;;19.57;46.46
62976;BME280;49071;0.000;0.000;2023-05-19T21:00:45;101976.97;;;19.56;46.50
62976;BME280;49071;0.000;0.000;2023-05-19T21:03:46;101978.78;;;19.55;46.59
62976;BME280;49071;0.000;0.000;2023-05-19T21:06:46;101983.16;;;19.56;46.62
62976;BME280;49071;0.000;0.000;2023-05-19T21:09:46;101982.25;;;19.57;46.72
62976;BME280;49071;0.000;0.000;2023-05-19T21:12:49;101977.84;;;19.56;46.39
62976;BME280;49071;0.000;0.000;2023-05-19T21:15:49;101980.50;;;19.56;46.38
62976;BME280;49071;0.000;0.000;2023-05-19T21:18:49;101977.84;;;19.56;46.52
62976;BME280;49071;0.000;0.000;2023-05-19T21:21:49;101978.78;;;19.55;46.13
62976;BME280;49071;0.000;0.000;2023-05-19T21:24:50;101976.13;;;19.55;46.69
62976;BME280;49071;0.000;0.000;2023-05-19T21:27:50;101974.31;;;19.56;46.31
62976;BME280;49071;0.000;0.000;2023-05-19T21:30:50;101976.13;;;19.55;46.58
62976;BME280;49071;0.000;0.000;2023-05-19T21:33:51;101981.41;;;19.55;46.50
62976;BME280;49071;0.000;0.000;2023-05-19T21:36:51;101981.47;;;19.54;46.41
62976;BME280;49071;0.000;0.000;2023-05-19T21:39:51;101988.53;;;19.55;46.58
62976;BME280;49071;0.000;0.000;2023-05-19T21:42:51;101993.91;;;19.53;45.86
